Time;durP1;ratioP1;P1;durP2;ratioP2;P2;SDS_P1;SDS_P2;PMS_P1;PMS_P2;Temp;Humidity;BMP_temperature;BMP_pressure;BME280_temperature;BME280_humidity;BME280_pressure;Samples;Min_cycle;Max_cycle;Signal;HPM_P1;HPM_P2
2021/11/02 10:27:46;;;;;;;32.22;19.42;;;;;;;;;;4948257;23;20054;-77
2021/11/02 10:30:33;;;;;;;34.25;21.02;;;;;;;;;;4841826;29;20045;-75
2021/11/02 10:33:11;;;;;;;31.50;20.85;;;;;;;;;;4865229;29;20066;-74
2021/11/02 10:35:44;;;;;;;33.78;22.35;;;;;;;;;;4846851;29;20233;-74
2021/11/02 10:38:37;;;;;;;35.55;22.40;;;;;;;;;;4837114;29;20070;-75
2021/11/02 10:41:18;;;;;;;34.05;20.73;;;;;;;;;;4837420;29;20034;-74
2021/11/02 10:43:51;;;;;;;33.83;21.33;;;;;;;;;;4837143;29;20069;-74
2021/11/02 10:46:38;;;;;;;32.70;21.20;;;;;;;;;;4851923;29;20550;-76
2021/11/02 10:49:25;;;;;;;33.78;21.17;;;;;;;;;;4836237;29;20136;-74
2021/11/02 10:52:05;;;;;;;31.60;21.17;;;;;;;;;;4837216;29;20041;-74
2021/11/02 10:54:51;;;;;;;33.50;21.60;;;;;;;;;;4836710;29;20131;-74
2021/11/02 10:58:00;;;;;;;32.30;20.48;;;;;;;;;;4829076;29;20049;-74
2021/11/02 11:00:32;;;;;;;38.25;22.38;;;;;;;;;;4853506;29;20030;-74
2021/11/02 11:03:08;;;;;;;31.88;20.70;;;;;;;;;;4837264;29;20065;-75
2021/11/02 11:05:34;;;;;;;27.42;20.20;;;;;;;;;;4853958;29;20046;-73
2021/11/02 11:08:05;;;;;;;39.45;22.73;;;;;;;;;;4853792;29;20262;-74
2021/11/02 11:11:00;;;;;;;29.08;21.10;;;;;;;;;;4852564;29;20499;-77
2021/11/02 11:13:40;;;;;;;31.63;21.35;;;;;;;;;;4835147;29;20026;-77
2021/11/02 11:16:34;;;;;;;34.50;21.42;;;;;;;;;;4841035;29;20067;-75
2021/11/02 11:22:50;;;;;;;32.80;21.80;;;;;;;;;;4846075;29;20349;-75
2021/11/02 11:26:00;;;;;;;32.53;20.67;;;;;;;;;;4821117;29;20103;-73
2021/11/02 11:28:58;;;;;;;33.63;21.50;;;;;;;;;;4836702;29;20129;-74
2021/11/02 11:31:43;;;;;;;32.75;21.92;;;;;;;;;;4836757;29;20044;-75
2021/11/02 11:34:16;;;;;;;34.53;22.48;;;;;;;;;;4836134;29;20050;-75
2021/11/02 11:37:26;;;;;;;37.20;20.60;;;;;;;;;;4838505;29;20114;-75
2021/11/02 11:40:12;;;;;;;34.05;21.67;;;;;;;;;;4836724;29;20037;-75
2021/11/02 11:42:59;;;;;;;33.17;20.77;;;;;;;;;;4853032;29;20351;-76
2021/11/02 11:46:12;;;;;;;34.08;21.67;;;;;;;;;;4844062;29;20065;-74
2021/11/02 11:48:53;;;;;;;34.42;22.17;;;;;;;;;;4816214;29;20038;-73
2021/11/02 11:52:14;;;;;;;34.85;22.58;;;;;;;;;;4818418;29;20042;-76
2021/11/02 11:55:09;;;;;;;33.40;21.83;;;;;;;;;;4837523;29;20098;-76
2021/11/02 11:58:02;;;;;;;34.78;22.40;;;;;;;;;;4835509;29;20091;-75
2021/11/02 12:00:36;;;;;;;34.60;23.23;;;;;;;;;;4836122;29;20091;-75
2021/11/02 12:03:34;;;;;;;34.17;22.42;;;;;;;;;;4835872;29;20042;-76
2021/11/02 12:06:29;;;;;;;37.58;22.55;;;;;;;;;;4836261;29;20034;-73
2021/11/02 12:09:22;;;;;;;35.83;22.42;;;;;;;;;;4831435;29;20043;-75
2021/11/02 12:12:04;;;;;;;33.45;21.67;;;;;;;;;;4816987;29;20403;-75
2021/11/02 12:14:58;;;;;;;34.35;22.70;;;;;;;;;;4852543;29;20037;-73
2021/11/02 12:17:30;;;;;;;33.10;22.52;;;;;;;;;;4851859;29;20034;-72
2021/11/02 12:20:04;;;;;;;34.70;22.10;;;;;;;;;;4835749;29;20593;-78
2021/11/02 12:22:47;;;;;;;33.97;21.98;;;;;;;;;;4831231;29;20490;-76
2021/11/02 12:25:19;;;;;;;36.03;22.17;;;;;;;;;;4834696;29;20038;-75
2021/11/02 12:27:45;;;;;;;36.90;22.10;;;;;;;;;;4816977;29;20034;-75
2021/11/02 12:30:13;;;;;;;33.63;22.35;;;;;;;;;;4817131;29;20476;-75
2021/11/02 12:32:51;;;;;;;34.25;20.80;;;;;;;;;;4835194;29;20046;-74
2021/11/02 12:35:22;;;;;;;33.72;21.65;;;;;;;;;;4835309;29;20030;-75
2021/11/02 12:37:54;;;;;;;34.47;22.55;;;;;;;;;;4834608;29;20030;-75
2021/11/02 12:40:25;;;;;;;35.35;21.88;;;;;;;;;;4834970;29;20049;-76
2021/11/02 12:42:51;;;;;;;33.83;21.40;;;;;;;;;;4834603;29;20034;-75
2021/11/02 12:45:19;;;;;;;37.50;22.33;;;;;;;;;;4835288;29;20038;-76
2021/11/02 12:47:47;;;;;;;38.25;23.42;;;;;;;;;;4835472;29;20038;-75
2021/11/02 12:50:16;;;;;;;32.85;22.35;;;;;;;;;;4835236;29;20348;-75
2021/11/02 12:52:43;;;;;;;34.58;22.83;;;;;;;;;;4835090;29;20060;-74
2021/11/02 12:55:24;;;;;;;32.97;22.05;;;;;;;;;;4835278;29;20325;-75
2021/11/02 12:57:59;;;;;;;36.42;22.52;;;;;;;;;;4835978;29;20341;-75
2021/11/02 13:00:28;;;;;;;33.22;21.55;;;;;;;;;;4851647;29;20436;-75
2021/11/02 13:03:02;;;;;;;35.08;21.98;;;;;;;;;;4851296;29;20065;-75
2021/11/02 13:05:29;;;;;;;35.28;21.73;;;;;;;;;;4834796;29;20049;-75
2021/11/02 13:08:14;;;;;;;33.38;20.80;;;;;;;;;;4834858;29;20030;-75
2021/11/02 13:10:41;;;;;;;30.48;20.92;;;;;;;;;;4831978;29;20038;-76
2021/11/02 13:13:08;;;;;;;35.08;21.52;;;;;;;;;;4852855;29;20479;-76
2021/11/02 13:15:54;;;;;;;32.20;21.02;;;;;;;;;;4836789;29;20067;-75
2021/11/02 13:18:38;;;;;;;31.30;21.15;;;;;;;;;;4837089;29;20484;-76
2021/11/02 13:21:21;;;;;;;31.08;21.73;;;;;;;;;;4844969;29;20038;-77
2021/11/02 13:23:53;;;;;;;33.70;21.50;;;;;;;;;;4837708;29;20046;-75
2021/11/02 13:26:20;;;;;;;32.25;20.23;;;;;;;;;;4819980;29;20508;-76
2021/11/02 13:28:47;;;;;;;33.13;21.85;;;;;;;;;;4819523;29;20142;-76
2021/11/02 13:31:25;;;;;;;30.70;20.45;;;;;;;;;;4821527;29;20041;-75
2021/11/02 13:34:02;;;;;;;37.33;22.08;;;;;;;;;;4864995;29;20057;-76
2021/11/02 13:36:29;;;;;;;31.52;21.15;;;;;;;;;;4856590;29;20029;-75
2021/11/02 13:39:04;;;;;;;29.75;20.52;;;;;;;;;;4857986;29;20029;-75
2021/11/02 13:41:32;;;;;;;33.33;21.55;;;;;;;;;;4837232;29;20026;-75
2021/11/02 13:44:01;;;;;;;31.35;21.55;;;;;;;;;;4838063;29;20494;-77
2021/11/02 13:46:30;;;;;;;37.10;23.27;;;;;;;;;;4836966;29;20055;-75
2021/11/02 13:48:56;;;;;;;36.00;21.67;;;;;;;;;;4854637;29;20041;-74
2021/11/02 13:51:25;;;;;;;32.70;22.40;;;;;;;;;;4837729;29;20037;-76
2021/11/02 13:53:51;;;;;;;37.90;22.40;;;;;;;;;;4853970;29;20030;-77
2021/11/02 13:56:23;;;;;;;35.22;21.98;;;;;;;;;;4853009;29;20030;-76
2021/11/02 13:58:50;;;;;;;35.40;23.02;;;;;;;;;;4853881;29;20034;-76
2021/11/02 14:01:31;;;;;;;37.33;22.48;;;;;;;;;;4819438;29;20041;-77
2021/11/02 14:04:25;;;;;;;35.90;22.50;;;;;;;;;;4819521;29;20035;-75
2021/11/02 14:06:55;;;;;;;;;;;;;;;;;;4840261;29;20033;-76
2021/11/02 14:09:30;;;;;;;37.55;22.67;;;;;;;;;;4837691;29;19947;-77
2021/11/02 14:11:57;;;;;;;36.47;22.90;;;;;;;;;;4837489;29;20034;-76
2021/11/02 14:14:36;;;;;;;33.58;21.70;;;;;;;;;;4853817;29;20038;-75
2021/11/02 14:17:32;;;;;;;38.17;24.95;;;;;;;;;;4853908;29;20046;-76
2021/11/02 14:19:57;;;;;;;37.55;23.88;;;;;;;;;;4826183;29;20474;-76
2021/11/02 14:22:52;;;;;;;37.78;23.55;;;;;;;;;;4836740;29;20058;-75
2021/11/02 14:25:19;;;;;;;36.47;23.48;;;;;;;;;;4853154;29;20040;-75
2021/11/02 14:27:48;;;;;;;36.72;24.48;;;;;;;;;;4836863;29;20029;-77
2021/11/02 14:30:32;;;;;;;37.60;24.67;;;;;;;;;;4837087;29;20034;-75
2021/11/02 14:33:11;;;;;;;40.17;24.50;;;;;;;;;;4837228;29;20033;-76
2021/11/02 14:35:45;;;;;;;38.92;24.27;;;;;;;;;;4837059;29;20041;-75
2021/11/02 14:38:13;;;;;;;37.15;25.00;;;;;;;;;;4837090;29;20087;-76
2021/11/02 14:40:40;;;;;;;39.53;24.90;;;;;;;;;;4837074;29;20079;-77
2021/11/02 14:43:13;;;;;;;40.40;25.95;;;;;;;;;;4853626;29;20066;-76
2021/11/02 14:45:43;;;;;;;36.88;25.42;;;;;;;;;;4853556;29;20042;-76
2021/11/02 14:48:33;;;;;;;40.42;24.42;;;;;;;;;;4853100;29;20034;-77
2021/11/02 14:50:59;;;;;;;36.30;24.27;;;;;;;;;;4853575;29;20705;-75
2021/11/02 14:53:26;;;;;;;36.00;24.17;;;;;;;;;;4853424;29;20040;-76
2021/11/02 14:55:55;;;;;;;38.92;24.85;;;;;;;;;;4836647;29;20030;-76
2021/11/02 14:58:43;;;;;;;38.97;24.95;;;;;;;;;;4836467;29;20041;-76
2021/11/02 15:01:23;;;;;;;41.65;25.67;;;;;;;;;;4836731;29;20094;-76
2021/11/02 15:03:50;;;;;;;39.15;24.92;;;;;;;;;;4836609;29;20506;-76
2021/11/02 15:06:16;;;;;;;43.47;26.30;;;;;;;;;;4836753;29;20070;-77
2021/11/02 15:08:43;;;;;;;42.40;26.42;;;;;;;;;;4836796;29;20038;-75
2021/11/02 15:11:14;;;;;;;40.13;24.30;;;;;;;;;;4852980;29;20062;-74
2021/11/02 15:13:46;;;;;;;40.65;24.60;;;;;;;;;;4836461;29;20045;-75
2021/11/02 15:16:12;;;;;;;40.15;24.63;;;;;;;;;;4836787;29;20091;-74
2021/11/02 15:18:59;;;;;;;37.25;24.48;;;;;;;;;;4836762;29;20101;-74
2021/11/02 15:21:35;;;;;;;38.08;24.65;;;;;;;;;;4836379;29;20368;-75
2021/11/02 15:24:06;;;;;;;37.70;24.83;;;;;;;;;;4852730;29;20509;-75
2021/11/02 15:27:07;;;;;;;41.22;24.98;;;;;;;;;;4836222;29;20365;-75
2021/11/02 15:29:36;;;;;;;39.60;24.55;;;;;;;;;;4835349;29;20109;-75
2021/11/02 15:32:07;;;;;;;40.30;23.90;;;;;;;;;;4833077;29;20068;-75
2021/11/02 15:34:41;;;;;;;39.30;24.63;;;;;;;;;;4840682;29;20368;-74
2021/11/02 15:37:08;;;;;;;;;;;;;;;;;;4818125;29;20041;-75
2021/11/02 15:39:36;;;;;;;38.85;24.52;;;;;;;;;;4834445;29;19988;-74
2021/11/02 15:42:03;;;;;;;36.30;23.13;;;;;;;;;;4817604;29;20595;-74
2021/11/02 15:44:29;;;;;;;35.33;23.52;;;;;;;;;;4834133;29;20038;-75
2021/11/02 15:46:55;;;;;;;41.80;23.83;;;;;;;;;;4799512;29;20038;-74
2021/11/02 15:49:24;;;;;;;38.88;23.90;;;;;;;;;;4804606;29;20030;-75
2021/11/02 15:51:56;;;;;;;37.38;24.27;;;;;;;;;;4816881;29;20118;-73
2021/11/02 15:54:26;;;;;;;39.30;24.42;;;;;;;;;;4816634;29;20106;-75
2021/11/02 15:57:09;;;;;;;36.47;24.38;;;;;;;;;;4833385;29;20045;-75
2021/11/02 15:59:42;;;;;;;33.38;22.58;;;;;;;;;;4818258;29;20038;-75
2021/11/02 16:02:09;;;;;;;37.83;24.55;;;;;;;;;;4818432;29;20049;-75
2021/11/02 16:05:03;;;;;;;37.45;24.52;;;;;;;;;;4836021;29;20033;-76
2021/11/02 16:07:34;;;;;;;39.30;24.05;;;;;;;;;;4815438;29;20045;-75
2021/11/02 16:10:07;;;;;;;36.75;23.80;;;;;;;;;;4817186;29;20108;-74
2021/11/02 16:12:39;;;;;;;43.33;24.27;;;;;;;;;;4816853;29;20042;-75
2021/11/02 16:15:20;;;;;;;39.38;25.02;;;;;;;;;;4815529;29;20042;-75
2021/11/02 16:17:47;;;;;;;37.22;23.83;;;;;;;;;;4815751;29;20035;-76
2021/11/02 16:20:35;;;;;;;40.35;24.83;;;;;;;;;;4814649;29;20072;-76
2021/11/02 16:23:08;;;;;;;36.30;24.30;;;;;;;;;;4816132;29;20456;-75
2021/11/02 16:25:42;;;;;;;40.90;26.08;;;;;;;;;;4815557;29;20062;-75
2021/11/02 16:28:15;;;;;;;38.63;24.55;;;;;;;;;;4819966;29;20153;-76
2021/11/02 16:30:46;;;;;;;42.65;25.30;;;;;;;;;;4821221;29;20054;-75
2021/11/02 16:33:12;;;;;;;39.47;23.77;;;;;;;;;;4837705;29;20105;-75
2021/11/02 16:35:47;;;;;;;37.85;24.83;;;;;;;;;;4860223;29;20037;-75
2021/11/02 16:38:36;;;;;;;38.92;24.42;;;;;;;;;;4833692;29;20109;-75
2021/11/02 16:41:22;;;;;;;38.47;24.00;;;;;;;;;;4824422;29;20110;-75
2021/11/02 16:44:03;;;;;;;35.83;23.98;;;;;;;;;;4849052;29;20101;-77
2021/11/02 16:46:37;;;;;;;38.05;25.35;;;;;;;;;;4832978;29;20086;-76
2021/11/02 16:49:11;;;;;;;41.45;24.98;;;;;;;;;;4836334;29;20042;-75
2021/11/02 16:51:51;;;;;;;39.00;25.88;;;;;;;;;;4837823;29;20072;-76
2021/11/02 16:54:31;;;;;;;38.88;24.75;;;;;;;;;;4837849;29;20049;-73
2021/11/02 16:57:05;;;;;;;38.47;24.98;;;;;;;;;;4850052;29;20061;-76
2021/11/02 16:59:40;;;;;;;37.78;24.58;;;;;;;;;;4837902;29;20475;-75
2021/11/02 17:02:15;;;;;;;37.92;24.50;;;;;;;;;;4853222;29;20040;-76
2021/11/02 17:05:01;;;;;;;41.85;25.27;;;;;;;;;;4849147;29;20042;-75
2021/11/02 17:07:35;;;;;;;42.25;26.08;;;;;;;;;;4855102;29;20133;-75
2021/11/02 17:10:19;;;;;;;42.55;25.60;;;;;;;;;;4853181;29;20487;-76
2021/11/02 17:12:47;;;;;;;37.92;24.27;;;;;;;;;;4836665;29;20034;-76
2021/11/02 17:15:25;;;;;;;42.65;23.58;;;;;;;;;;4836614;29;20105;-75
2021/11/02 17:17:52;;;;;;;43.85;24.92;;;;;;;;;;4837407;29;20471;-75
2021/11/02 17:20:24;;;;;;;40.85;25.58;;;;;;;;;;4833489;29;20030;-76
2021/11/02 17:22:51;;;;;;;41.20;25.55;;;;;;;;;;4837370;29;20101;-76
2021/11/02 17:25:20;;;;;;;41.35;26.58;;;;;;;;;;4836061;29;20475;-76
2021/11/02 17:27:48;;;;;;;46.28;27.52;;;;;;;;;;4853508;29;20030;-75
2021/11/02 17:30:18;;;;;;;43.53;26.70;;;;;;;;;;4837350;29;20057;-76
2021/11/02 17:32:43;;;;;;;49.60;27.58;;;;;;;;;;4834380;29;20078;-75
2021/11/02 17:35:10;;;;;;;40.95;25.25;;;;;;;;;;4834999;29;20098;-74
2021/11/02 17:37:36;;;;;;;39.90;25.08;;;;;;;;;;4851477;29;20049;-76
2021/11/02 17:40:02;;;;;;;43.80;26.95;;;;;;;;;;4839223;29;20033;-77
2021/11/02 17:42:28;;;;;;;43.88;26.33;;;;;;;;;;4836882;29;20042;-75
2021/11/02 17:44:53;;;;;;;40.97;26.67;;;;;;;;;;4835390;29;20034;-76
2021/11/02 17:47:19;;;;;;;40.40;25.88;;;;;;;;;;4849966;29;20558;-76
2021/11/02 17:49:47;;;;;;;46.75;25.92;;;;;;;;;;4837043;29;20052;-75
2021/11/02 17:52:13;;;;;;;46.05;28.25;;;;;;;;;;4835243;29;20034;-78
2021/11/02 17:54:40;;;;;;;41.58;26.45;;;;;;;;;;4851289;29;20045;-75
2021/11/02 17:57:08;;;;;;;42.28;26.60;;;;;;;;;;4837500;29;20038;-76
2021/11/02 17:59:34;;;;;;;44.60;26.52;;;;;;;;;;4837492;29;20649;-76
2021/11/02 18:02:04;;;;;;;38.70;24.92;;;;;;;;;;4837136;29;20059;-76
2021/11/02 18:04:31;;;;;;;40.22;25.00;;;;;;;;;;4837773;29;20086;-76
2021/11/02 18:06:59;;;;;;;45.75;26.05;;;;;;;;;;4854361;29;20068;-77
2021/11/02 18:09:25;;;;;;;43.35;26.15;;;;;;;;;;4836772;29;20163;-76
2021/11/02 18:11:51;;;;;;;41.35;26.38;;;;;;;;;;4836762;29;20555;-76
2021/11/02 18:14:17;;;;;;;40.25;25.50;;;;;;;;;;4852614;29;20062;-76
2021/11/02 18:16:45;;;;;;;42.13;25.45;;;;;;;;;;4836661;29;20030;-78
2021/11/02 18:19:15;;;;;;;43.08;26.60;;;;;;;;;;4844141;29;20034;-76
2021/11/02 18:21:45;;;;;;;41.20;26.20;;;;;;;;;;4853486;29;20026;-75
2021/11/02 18:24:11;;;;;;;41.63;27.13;;;;;;;;;;4838726;29;20029;-75
2021/11/02 18:26:37;;;;;;;41.92;26.05;;;;;;;;;;4836374;29;20029;-75
2021/11/02 18:29:04;;;;;;;42.17;25.67;;;;;;;;;;4853705;29;20054;-76
2021/11/02 18:31:30;;;;;;;42.72;26.70;;;;;;;;;;4837019;29;20097;-75
2021/11/02 18:33:56;;;;;;;44.92;26.48;;;;;;;;;;4853204;29;20062;-76
2021/11/02 18:36:23;;;;;;;48.28;27.17;;;;;;;;;;4835333;29;20048;-75
2021/11/02 18:38:50;;;;;;;45.55;27.15;;;;;;;;;;4860719;29;20109;-76
2021/11/02 18:41:16;;;;;;;42.92;27.48;;;;;;;;;;4865261;29;20037;-77
2021/11/02 18:43:42;;;;;;;49.30;28.95;;;;;;;;;;4836066;29;20122;-75
2021/11/02 18:46:09;;;;;;;49.47;29.75;;;;;;;;;;4835752;29;20030;-75
2021/11/02 18:48:36;;;;;;;48.42;29.08;;;;;;;;;;4836403;29;20048;-75
2021/11/02 18:51:03;;;;;;;56.38;30.58;;;;;;;;;;4856757;29;20034;-75
2021/11/02 18:53:29;;;;;;;50.95;31.33;;;;;;;;;;4851108;29;20038;-76
2021/11/02 18:55:55;;;;;;;56.72;30.95;;;;;;;;;;4836863;29;20046;-75
2021/11/02 18:58:22;;;;;;;55.10;31.02;;;;;;;;;;4850068;29;20045;-76
2021/11/02 19:00:48;;;;;;;55.50;31.98;;;;;;;;;;4833245;29;20034;-77
2021/11/02 19:03:14;;;;;;;54.20;33.97;;;;;;;;;;4839118;29;20038;-75
2021/11/02 19:05:41;;;;;;;57.97;31.38;;;;;;;;;;4851479;29;20530;-75
2021/11/02 19:08:11;;;;;;;60.17;32.15;;;;;;;;;;4838687;29;20043;-75
2021/11/02 19:10:38;;;;;;;60.17;32.45;;;;;;;;;;4863922;29;20040;-76
2021/11/02 19:13:05;;;;;;;58.10;31.67;;;;;;;;;;4834239;29;20043;-75
2021/11/02 19:15:31;;;;;;;58.95;33.67;;;;;;;;;;4834278;29;20077;-76
2021/11/02 19:17:57;;;;;;;59.50;33.97;;;;;;;;;;4835388;29;20033;-75
2021/11/02 19:20:23;;;;;;;60.75;32.20;;;;;;;;;;4857356;29;20034;-76
2021/11/02 19:22:49;;;;;;;59.22;33.65;;;;;;;;;;4845584;29;20175;-76
2021/11/02 19:25:15;;;;;;;60.88;33.85;;;;;;;;;;4835505;29;20033;-76
2021/11/02 19:27:41;;;;;;;62.65;34.92;;;;;;;;;;4839163;29;20101;-75
2021/11/02 19:30:07;;;;;;;60.58;33.63;;;;;;;;;;4838405;29;20098;-77
2021/11/02 19:32:34;;;;;;;61.40;33.15;;;;;;;;;;4848043;29;20030;-77
2021/11/02 19:35:02;;;;;;;62.50;33.03;;;;;;;;;;4838187;29;21075;-76
2021/11/02 19:37:30;;;;;;;64.88;35.15;;;;;;;;;;4859934;29;20046;-76
2021/11/02 19:39:56;;;;;;;61.15;34.90;;;;;;;;;;4852888;29;20603;-76
2021/11/02 19:42:21;;;;;;;64.63;34.35;;;;;;;;;;4850538;29;20037;-76
2021/11/02 19:44:47;;;;;;;63.05;34.35;;;;;;;;;;4836539;29;20105;-76
2021/11/02 19:47:16;;;;;;;64.13;34.38;;;;;;;;;;4836605;29;20038;-76
2021/11/02 19:49:42;;;;;;;61.97;34.88;;;;;;;;;;4836408;29;20041;-75
2021/11/02 19:52:08;;;;;;;60.53;34.58;;;;;;;;;;4852573;29;20046;-75
2021/11/02 19:54:34;;;;;;;60.83;34.17;;;;;;;;;;4841762;29;20045;-76
2021/11/02 19:57:00;;;;;;;67.88;34.47;;;;;;;;;;4845251;29;20067;-75
2021/11/02 19:59:27;;;;;;;61.40;32.97;;;;;;;;;;4848911;29;20033;-76
2021/11/02 20:01:58;;;;;;;68.07;35.25;;;;;;;;;;4839375;29;20074;-76
2021/11/02 20:04:24;;;;;;;61.40;33.97;;;;;;;;;;4847008;29;20034;-75
2021/11/02 20:06:59;;;;;;;66.70;37.17;;;;;;;;;;4834348;29;20463;-75
2021/11/02 20:09:28;;;;;;;63.97;35.58;;;;;;;;;;4847153;29;20041;-76
2021/11/02 20:12:00;;;;;;;61.03;34.05;;;;;;;;;;4836135;29;20468;-76
2021/11/02 20:14:26;;;;;;;60.80;35.55;;;;;;;;;;4828676;29;20045;-75
2021/11/02 20:16:59;;;;;;;61.30;34.35;;;;;;;;;;4832501;29;20053;-76
2021/11/02 20:19:27;;;;;;;63.30;35.20;;;;;;;;;;4831592;29;20106;-75
2021/11/02 20:21:57;;;;;;;63.35;34.05;;;;;;;;;;4831540;29;20038;-77
2021/11/02 20:24:39;;;;;;;61.60;35.15;;;;;;;;;;4834939;29;20048;-74
2021/11/02 20:27:07;;;;;;;63.50;34.90;;;;;;;;;;4834357;29;20038;-75
2021/11/02 20:29:33;;;;;;;60.40;35.45;;;;;;;;;;4839743;29;20053;-75
2021/11/02 20:32:01;;;;;;;64.07;35.20;;;;;;;;;;4835046;29;20045;-76
2021/11/02 20:34:29;;;;;;;63.38;35.95;;;;;;;;;;4835769;29;20037;-76
2021/11/02 20:37:05;;;;;;;65.13;35.08;;;;;;;;;;4833625;29;20053;-74
2021/11/02 20:39:39;;;;;;;69.93;36.08;;;;;;;;;;4830926;29;20046;-74
2021/11/02 20:42:06;;;;;;;;;;;;;;;;;;4837743;29;20060;-75
2021/11/02 20:44:32;;;;;;;61.35;33.30;;;;;;;;;;4849572;29;19919;-74
2021/11/02 20:47:03;;;;;;;60.28;33.55;;;;;;;;;;4844075;29;20042;-75
2021/11/02 20:49:34;;;;;;;61.40;35.42;;;;;;;;;;4836658;29;20098;-75
2021/11/02 20:52:04;;;;;;;68.68;36.33;;;;;;;;;;4833167;29;20551;-75
2021/11/02 20:54:32;;;;;;;65.55;36.03;;;;;;;;;;4834921;29;20070;-77
2021/11/02 20:56:58;;;;;;;59.25;34.88;;;;;;;;;;4834461;29;20086;-76
2021/11/02 20:59:25;;;;;;;58.20;34.33;;;;;;;;;;4819605;29;20041;-76
2021/11/02 21:01:53;;;;;;;66.78;34.95;;;;;;;;;;4832642;29;20038;-77
2021/11/02 21:04:20;;;;;;;64.00;34.38;;;;;;;;;;4831864;29;20030;-76
2021/11/02 21:06:51;;;;;;;57.88;33.65;;;;;;;;;;4835282;29;20038;-76
2021/11/02 21:09:21;;;;;;;64.53;35.30;;;;;;;;;;4833222;29;20029;-76
2021/11/02 21:11:53;;;;;;;60.30;33.97;;;;;;;;;;4834290;29;20121;-75
2021/11/02 21:14:20;;;;;;;61.72;33.42;;;;;;;;;;4834679;29;20117;-75
2021/11/02 21:16:48;;;;;;;58.42;33.40;;;;;;;;;;4835615;29;20097;-76
2021/11/02 21:19:17;;;;;;;69.90;36.40;;;;;;;;;;4834651;29;20044;-76
2021/11/02 21:21:43;;;;;;;61.53;34.25;;;;;;;;;;4833706;29;20121;-78
2021/11/02 21:24:13;;;;;;;61.42;34.55;;;;;;;;;;4850114;29;20054;-75
2021/11/02 21:26:40;;;;;;;63.22;33.33;;;;;;;;;;4854225;29;20034;-77
2021/11/02 21:29:07;;;;;;;65.32;35.70;;;;;;;;;;4848630;29;20077;-76
2021/11/02 21:31:33;;;;;;;59.55;34.35;;;;;;;;;;4838489;29;20037;-77
2021/11/02 21:34:02;;;;;;;62.35;35.03;;;;;;;;;;4838551;29;20052;-76
2021/11/02 21:36:32;;;;;;;62.10;34.85;;;;;;;;;;4850494;29;20030;-75
2021/11/02 21:38:58;;;;;;;60.30;35.03;;;;;;;;;;4837448;29;20030;-76
2021/11/02 21:41:28;;;;;;;63.80;33.90;;;;;;;;;;4837529;29;20056;-77
2021/11/02 21:44:00;;;;;;;58.35;32.92;;;;;;;;;;4832907;29;20041;-76
2021/11/02 21:46:39;;;;;;;63.63;35.60;;;;;;;;;;4837134;29;20463;-74
2021/11/02 21:49:16;;;;;;;59.55;32.78;;;;;;;;;;4835900;29;20042;-75
2021/11/02 21:51:43;;;;;;;62.83;35.15;;;;;;;;;;4853620;29;20034;-75
2021/11/02 21:54:10;;;;;;;61.47;33.97;;;;;;;;;;4836368;29;20030;-74
2021/11/02 21:56:44;;;;;;;66.55;34.95;;;;;;;;;;4836508;29;20416;-76
2021/11/02 21:59:16;;;;;;;60.05;34.78;;;;;;;;;;4841390;29;20087;-77
2021/11/02 22:01:42;;;;;;;60.92;34.15;;;;;;;;;;4833422;29;20026;-76
2021/11/02 22:04:11;;;;;;;57.40;33.28;;;;;;;;;;4836511;29;20044;-75
2021/11/02 22:06:37;;;;;;;60.85;33.53;;;;;;;;;;4836996;29;20044;-75
2021/11/02 22:09:04;;;;;;;64.68;35.47;;;;;;;;;;4837264;29;20054;-74
2021/11/02 22:11:32;;;;;;;67.85;34.80;;;;;;;;;;4837785;29;20140;-75
2021/11/02 22:13:58;;;;;;;62.03;33.80;;;;;;;;;;4836528;29;20045;-77
2021/11/02 22:16:24;;;;;;;66.82;35.47;;;;;;;;;;4836695;29;20550;-75
2021/11/02 22:18:49;;;;;;;61.05;33.80;;;;;;;;;;4837727;29;20038;-76
2021/11/02 22:21:15;;;;;;;65.60;32.35;;;;;;;;;;4832364;29;20060;-76
2021/11/02 22:23:41;;;;;;;61.78;32.80;;;;;;;;;;4836668;29;20050;-75
2021/11/02 22:26:07;;;;;;;59.67;31.88;;;;;;;;;;4853388;29;20098;-74
2021/11/02 22:28:37;;;;;;;57.05;31.92;;;;;;;;;;4852917;29;20073;-75
2021/11/02 22:31:07;;;;;;;58.25;32.70;;;;;;;;;;4836993;29;20030;-75
2021/11/02 22:33:35;;;;;;;58.92;32.90;;;;;;;;;;4836932;29;20474;-76
2021/11/02 22:36:01;;;;;;;67.05;32.25;;;;;;;;;;4838437;29;20121;-75
2021/11/02 22:38:27;;;;;;;58.30;31.58;;;;;;;;;;4835891;29;20033;-74
2021/11/02 22:40:52;;;;;;;60.08;32.33;;;;;;;;;;4853648;29;20046;-75
2021/11/02 22:43:18;;;;;;;54.03;30.77;;;;;;;;;;4836473;29;20046;-76
2021/11/02 22:45:46;;;;;;;56.00;30.55;;;;;;;;;;4835193;29;20045;-75
2021/11/02 22:48:12;;;;;;;57.67;31.77;;;;;;;;;;4852966;29;20033;-76
2021/11/02 22:50:38;;;;;;;58.25;31.77;;;;;;;;;;4836559;29;20060;-74
2021/11/02 22:53:06;;;;;;;56.15;31.35;;;;;;;;;;4827917;29;20090;-78
2021/11/02 22:55:32;;;;;;;60.25;31.33;;;;;;;;;;4836308;29;20041;-76
2021/11/02 22:57:59;;;;;;;59.88;31.23;;;;;;;;;;4836354;29;20038;-76
2021/11/02 23:00:50;;;;;;;59.40;31.90;;;;;;;;;;4836613;29;20048;-77
2021/11/02 23:03:18;;;;;;;54.13;30.55;;;;;;;;;;4829348;29;20050;-75
2021/11/02 23:05:45;;;;;;;55.00;30.70;;;;;;;;;;4836047;29;20534;-77
2021/11/02 23:08:16;;;;;;;54.63;29.92;;;;;;;;;;4835788;29;20033;-76
2021/11/02 23:10:43;;;;;;;54.30;30.02;;;;;;;;;;4836401;29;20038;-76
2021/11/02 23:13:11;;;;;;;53.90;30.50;;;;;;;;;;4835691;29;20030;-76
2021/11/02 23:15:37;;;;;;;56.35;29.10;;;;;;;;;;4835848;29;20053;-76
2021/11/02 23:18:05;;;;;;;62.08;30.00;;;;;;;;;;4836213;29;20038;-77
2021/11/02 23:20:31;;;;;;;58.70;31.60;;;;;;;;;;4851885;29;20479;-75
2021/11/02 23:23:22;;;;;;;61.45;30.83;;;;;;;;;;4836197;29;20109;-76
2021/11/02 23:25:52;;;;;;;56.00;29.10;;;;;;;;;;4844369;29;20045;-75
2021/11/02 23:28:20;;;;;;;68.28;34.47;;;;;;;;;;4835273;29;20061;-76
2021/11/02 23:30:48;;;;;;;63.00;32.53;;;;;;;;;;4835439;29;20042;-75
2021/11/02 23:33:17;;;;;;;56.95;32.53;;;;;;;;;;4835685;29;20037;-76
2021/11/02 23:35:43;;;;;;;57.92;30.55;;;;;;;;;;4835697;29;20115;-75
2021/11/02 23:38:09;;;;;;;58.03;31.63;;;;;;;;;;4835048;29;20545;-75
2021/11/02 23:40:42;;;;;;;57.47;32.67;;;;;;;;;;4835819;29;20114;-76
2021/11/02 23:43:08;;;;;;;58.80;32.28;;;;;;;;;;4836083;29;20083;-76
2021/11/02 23:45:33;;;;;;;56.55;33.28;;;;;;;;;;4848109;29;20041;-75
2021/11/02 23:48:00;;;;;;;54.25;31.15;;;;;;;;;;4834821;29;20467;-76
2021/11/02 23:50:25;;;;;;;57.45;30.27;;;;;;;;;;4835735;29;20057;-75
2021/11/02 23:52:51;;;;;;;49.28;25.60;;;;;;;;;;4835312;29;20034;-76
2021/11/02 23:55:17;;;;;;;62.25;32.30;;;;;;;;;;4835397;29;20037;-76
2021/11/02 23:57:42;;;;;;;57.28;31.58;;;;;;;;;;4834673;29;20069;-77
